sensor_id;sensor_type;location;lat;lon;timestamp;pressure;altitude;pressure_sealevel;temperature;humidity
47706;BME280;33471;52.104;1.318;2022-07-29T00:00:47;101536.15;;;18.03;45.05
47706;BME280;33471;52.104;1.318;2022-07-29T00:03:15;101536.10;;;18.14;45.46
47706;BME280;33471;52.104;1.318;2022-07-29T00:05:42;101535.71;;;17.66;45.81
47706;BME280;33471;52.104;1.318;2022-07-29T00:08:09;101530.38;;;18.42;45.47
47706;BME280;33471;52.104;1.318;2022-07-29T00:10:36;101533.90;;;17.87;45.54
47706;BME280;33471;52.104;1.318;2022-07-29T00:13:04;101532.43;;;18.29;45.68
47706;BME280;33471;52.104;1.318;2022-07-29T00:15:31;101527.62;;;17.39;46.90
47706;BME280;33471;52.104;1.318;2022-07-29T00:17:58;101526.77;;;17.83;46.71
47706;BME280;33471;52.104;1.318;2022-07-29T00:20:25;101524.20;;;17.55;47.13
47706;BME280;33471;52.104;1.318;2022-07-29T00:22:53;101524.70;;;18.00;46.03
47706;BME280;33471;52.104;1.318;2022-07-29T00:25:20;101522.29;;;17.99;46.16
47706;BME280;33471;52.104;1.318;2022-07-29T00:27:47;101522.13;;;18.10;45.95
47706;BME280;33471;52.104;1.318;2022-07-29T00:30:15;101523.28;;;17.84;46.08
47706;BME280;33471;52.104;1.318;2022-07-29T00:32:42;101523.03;;;17.83;46.70
47706;BME280;33471;52.104;1.318;2022-07-29T00:35:10;101521.15;;;18.22;46.48
47706;BME280;33471;52.104;1.318;2022-07-29T00:37:37;101514.48;;;18.10;46.29
47706;BME280;33471;52.104;1.318;2022-07-29T00:40:06;101512.82;;;18.10;46.91
47706;BME280;33471;52.104;1.318;2022-07-29T00:42:42;101509.47;;;18.32;46.04
47706;BME280;33471;52.104;1.318;2022-07-29T00:45:09;101508.64;;;18.35;46.26
47706;BME280;33471;52.104;1.318;2022-07-29T00:47:37;101508.12;;;18.46;46.03
47706;BME280;33471;52.104;1.318;2022-07-29T00:50:06;101504.04;;;17.79;46.49
47706;BME280;33471;52.104;1.318;2022-07-29T00:52:36;101503.10;;;18.21;46.39
47706;BME280;33471;52.104;1.318;2022-07-29T00:55:05;101502.29;;;18.47;46.37
47706;BME280;33471;52.104;1.318;2022-07-29T00:57:34;101496.99;;;18.63;46.26
47706;BME280;33471;52.104;1.318;2022-07-29T01:00:01;101497.20;;;18.64;46.69
47706;BME280;33471;52.104;1.318;2022-07-29T01:02:29;101495.07;;;18.64;46.81
47706;BME280;33471;52.104;1.318;2022-07-29T01:04:56;101490.27;;;18.14;47.22
47706;BME280;33471;52.104;1.318;2022-07-29T01:07:24;101487.49;;;17.84;47.27
47706;BME280;33471;52.104;1.318;2022-07-29T01:09:53;101487.67;;;18.29;47.56
47706;BME280;33471;52.104;1.318;2022-07-29T01:12:24;101486.72;;;17.86;47.49
47706;BME280;33471;52.104;1.318;2022-07-29T01:14:52;101483.04;;;18.43;47.64
47706;BME280;33471;52.104;1.318;2022-07-29T01:17:26;101481.17;;;17.95;47.70
47706;BME280;33471;52.104;1.318;2022-07-29T01:20:00;101481.16;;;18.16;48.65
47706;BME280;33471;52.104;1.318;2022-07-29T01:22:37;101484.64;;;18.01;48.93
47706;BME280;33471;52.104;1.318;2022-07-29T01:25:22;101486.40;;;18.00;48.71
47706;BME280;33471;52.104;1.318;2022-07-29T01:28:08;101489.84;;;18.20;48.74
47706;BME280;33471;52.104;1.318;2022-07-29T01:30:42;101487.73;;;18.18;48.62
47706;BME280;33471;52.104;1.318;2022-07-29T01:33:15;101487.56;;;18.23;48.60
47706;BME280;33471;52.104;1.318;2022-07-29T01:35:44;101488.49;;;18.36;48.52
47706;BME280;33471;52.104;1.318;2022-07-29T01:38:15;101489.35;;;18.48;48.66
47706;BME280;33471;52.104;1.318;2022-07-29T01:40:47;101484.42;;;18.45;48.85
47706;BME280;33471;52.104;1.318;2022-07-29T01:43:20;101485.23;;;17.89;49.03
47706;BME280;33471;52.104;1.318;2022-07-29T01:45:53;101486.18;;;18.39;48.99
47706;BME280;33471;52.104;1.318;2022-07-29T01:48:26;101488.86;;;17.67;49.53
47706;BME280;33471;52.104;1.318;2022-07-29T01:51:02;101488.27;;;18.37;48.87
47706;BME280;33471;52.104;1.318;2022-07-29T01:53:35;101484.84;;;17.71;49.43
47706;BME280;33471;52.104;1.318;2022-07-29T01:56:06;101482.59;;;17.72;49.51
47706;BME280;33471;52.104;1.318;2022-07-29T01:58:39;101483.27;;;18.13;49.25
47706;BME280;33471;52.104;1.318;2022-07-29T02:01:08;101483.81;;;17.86;49.50
47706;BME280;33471;52.104;1.318;2022-07-29T02:03:36;101481.93;;;18.31;49.12
47706;BME280;33471;52.104;1.318;2022-07-29T02:06:06;101482.47;;;18.22;49.60
47706;BME280;33471;52.104;1.318;2022-07-29T02:08:36;101481.43;;;18.05;49.78
47706;BME280;33471;52.104;1.318;2022-07-29T02:11:06;101482.23;;;18.49;49.38
47706;BME280;33471;52.104;1.318;2022-07-29T02:13:35;101479.71;;;18.57;49.34
47706;BME280;33471;52.104;1.318;2022-07-29T02:16:06;101478.44;;;17.61;49.87
47706;BME280;33471;52.104;1.318;2022-07-29T02:18:36;101479.62;;;18.55;49.49
47706;BME280;33471;52.104;1.318;2022-07-29T02:21:04;101476.66;;;18.84;48.55
47706;BME280;33471;52.104;1.318;2022-07-29T02:23:33;101480.33;;;18.09;49.57
47706;BME280;33471;52.104;1.318;2022-07-29T02:26:03;101484.67;;;18.25;49.06
47706;BME280;33471;52.104;1.318;2022-07-29T02:28:31;101489.51;;;18.19;49.19
47706;BME280;33471;52.104;1.318;2022-07-29T02:31:02;101488.29;;;18.54;49.08
47706;BME280;33471;52.104;1.318;2022-07-29T02:33:31;101483.19;;;18.62;48.58
47706;BME280;33471;52.104;1.318;2022-07-29T02:35:59;101480.89;;;18.89;48.68
47706;BME280;33471;52.104;1.318;2022-07-29T02:38:28;101486.70;;;18.61;48.67
47706;BME280;33471;52.104;1.318;2022-07-29T02:41:00;101484.63;;;18.58;48.80
47706;BME280;33471;52.104;1.318;2022-07-29T02:43:29;101481.88;;;19.13;48.38
47706;BME280;33471;52.104;1.318;2022-07-29T02:45:58;101478.84;;;18.95;48.58
47706;BME280;33471;52.104;1.318;2022-07-29T02:48:32;101477.32;;;18.66;48.66
47706;BME280;33471;52.104;1.318;2022-07-29T02:51:08;101481.78;;;18.43;49.57
47706;BME280;33471;52.104;1.318;2022-07-29T02:53:38;101481.42;;;18.42;49.48
47706;BME280;33471;52.104;1.318;2022-07-29T02:56:14;101479.85;;;17.95;49.85
47706;BME280;33471;52.104;1.318;2022-07-29T02:58:49;101477.76;;;18.12;49.40
47706;BME280;33471;52.104;1.318;2022-07-29T03:01:24;101476.91;;;18.16;49.51
47706;BME280;33471;52.104;1.318;2022-07-29T03:03:54;101477.35;;;18.39;49.21
47706;BME280;33471;52.104;1.318;2022-07-29T03:06:24;101476.08;;;17.75;49.91
47706;BME280;33471;52.104;1.318;2022-07-29T03:08:52;101477.40;;;18.30;49.58
47706;BME280;33471;52.104;1.318;2022-07-29T03:11:21;101480.61;;;17.19;50.79
47706;BME280;33471;52.104;1.318;2022-07-29T03:13:49;101480.87;;;17.78;49.97
47706;BME280;33471;52.104;1.318;2022-07-29T03:16:18;101479.93;;;17.97;49.63
47706;BME280;33471;52.104;1.318;2022-07-29T03:18:47;101475.81;;;16.93;50.89
47706;BME280;33471;52.104;1.318;2022-07-29T03:21:16;101474.73;;;17.45;50.32
47706;BME280;33471;52.104;1.318;2022-07-29T03:23:44;101473.96;;;17.42;50.07
47706;BME280;33471;52.104;1.318;2022-07-29T03:26:11;101472.96;;;17.01;50.85
47706;BME280;33471;52.104;1.318;2022-07-29T03:28:39;101476.21;;;16.33;52.08
47706;BME280;33471;52.104;1.318;2022-07-29T03:31:06;101473.51;;;16.96;50.79
47706;BME280;33471;52.104;1.318;2022-07-29T03:33:34;101473.33;;;16.72;51.18
47706;BME280;33471;52.104;1.318;2022-07-29T03:36:02;101477.06;;;16.36;51.62
47706;BME280;33471;52.104;1.318;2022-07-29T03:38:30;101482.27;;;16.66;50.97
47706;BME280;33471;52.104;1.318;2022-07-29T03:41:03;101484.97;;;16.41;51.87
47706;BME280;33471;52.104;1.318;2022-07-29T03:43:35;101486.81;;;16.88;50.36
47706;BME280;33471;52.104;1.318;2022-07-29T03:46:06;101487.56;;;16.18;52.21
47706;BME280;33471;52.104;1.318;2022-07-29T03:48:35;101493.04;;;16.41;51.98
47706;BME280;33471;52.104;1.318;2022-07-29T03:51:04;101489.44;;;16.47;51.67
47706;BME280;33471;52.104;1.318;2022-07-29T03:53:32;101492.62;;;16.03;52.38
47706;BME280;33471;52.104;1.318;2022-07-29T03:56:01;101491.97;;;15.95;52.99
47706;BME280;33471;52.104;1.318;2022-07-29T03:58:30;101485.01;;;16.15;52.12
47706;BME280;33471;52.104;1.318;2022-07-29T04:00:58;101486.70;;;16.93;51.35
47706;BME280;33471;52.104;1.318;2022-07-29T04:03:26;101492.21;;;16.20;51.23
47706;BME280;33471;52.104;1.318;2022-07-29T04:06:02;101497.39;;;16.05;51.92
47706;BME280;33471;52.104;1.318;2022-07-29T04:08:30;101501.30;;;15.90;52.34
47706;BME280;33471;52.104;1.318;2022-07-29T04:10:57;101501.54;;;16.02;52.56
47706;BME280;33471;52.104;1.318;2022-07-29T04:13:24;101504.37;;;16.15;52.38
47706;BME280;33471;52.104;1.318;2022-07-29T04:15:51;101503.30;;;16.00;52.65
47706;BME280;33471;52.104;1.318;2022-07-29T04:18:18;101501.98;;;15.77;51.96
47706;BME280;33471;52.104;1.318;2022-07-29T04:20:45;101501.80;;;15.40;53.91
47706;BME280;33471;52.104;1.318;2022-07-29T04:23:13;101497.62;;;16.10;52.53
47706;BME280;33471;52.104;1.318;2022-07-29T04:25:41;101498.15;;;15.79;53.25
47706;BME280;33471;52.104;1.318;2022-07-29T04:28:10;101503.67;;;15.44;54.38
47706;BME280;33471;52.104;1.318;2022-07-29T04:30:38;101499.42;;;15.98;52.83
47706;BME280;33471;52.104;1.318;2022-07-29T04:33:06;101503.27;;;15.27;53.85
47706;BME280;33471;52.104;1.318;2022-07-29T04:35:35;101498.78;;;15.55;53.20
47706;BME280;33471;52.104;1.318;2022-07-29T04:38:04;101500.14;;;15.74;53.83
47706;BME280;33471;52.104;1.318;2022-07-29T04:40:32;101502.04;;;15.76;53.34
47706;BME280;33471;52.104;1.318;2022-07-29T04:43:01;101501.96;;;16.02;53.30
47706;BME280;33471;52.104;1.318;2022-07-29T04:45:28;101501.40;;;15.43;53.48
47706;BME280;33471;52.104;1.318;2022-07-29T04:47:55;101501.88;;;15.27;54.39
47706;BME280;33471;52.104;1.318;2022-07-29T04:50:22;101502.37;;;15.62;53.77
47706;BME280;33471;52.104;1.318;2022-07-29T04:52:50;101507.79;;;15.68;53.52
47706;BME280;33471;52.104;1.318;2022-07-29T04:55:17;101509.53;;;15.03;53.47
47706;BME280;33471;52.104;1.318;2022-07-29T04:57:45;101503.46;;;15.97;52.95
47706;BME280;33471;52.104;1.318;2022-07-29T05:00:13;101506.44;;;15.92;52.31
47706;BME280;33471;52.104;1.318;2022-07-29T05:02:42;101507.91;;;16.21;52.61
47706;BME280;33471;52.104;1.318;2022-07-29T05:05:09;101509.36;;;16.25;52.97
47706;BME280;33471;52.104;1.318;2022-07-29T05:07:36;101506.88;;;16.05;52.57
47706;BME280;33471;52.104;1.318;2022-07-29T05:10:04;101505.23;;;16.35;51.92
47706;BME280;33471;52.104;1.318;2022-07-29T05:12:31;101503.68;;;15.67;53.06
47706;BME280;33471;52.104;1.318;2022-07-29T05:14:59;101508.10;;;16.20;52.34
47706;BME280;33471;52.104;1.318;2022-07-29T05:17:27;101508.10;;;16.19;52.45
47706;BME280;33471;52.104;1.318;2022-07-29T05:19:54;101509.00;;;16.34;53.18
47706;BME280;33471;52.104;1.318;2022-07-29T05:22:21;101507.28;;;15.64;53.69
47706;BME280;33471;52.104;1.318;2022-07-29T05:24:48;101508.36;;;15.79;53.12
47706;BME280;33471;52.104;1.318;2022-07-29T05:27:16;101507.61;;;15.80;53.63
47706;BME280;33471;52.104;1.318;2022-07-29T05:29:43;101507.69;;;16.38;52.76
47706;BME280;33471;52.104;1.318;2022-07-29T05:32:11;101500.89;;;16.94;52.26
47706;BME280;33471;52.104;1.318;2022-07-29T05:34:38;101505.38;;;17.29;51.28
47706;BME280;33471;52.104;1.318;2022-07-29T05:37:05;101503.22;;;17.44;50.21
47706;BME280;33471;52.104;1.318;2022-07-29T05:39:32;101502.73;;;17.78;49.44
47706;BME280;33471;52.104;1.318;2022-07-29T05:42:00;101506.63;;;17.63;49.75
47706;BME280;33471;52.104;1.318;2022-07-29T05:44:27;101507.37;;;18.25;48.62
47706;BME280;33471;52.104;1.318;2022-07-29T05:46:54;101504.42;;;18.76;47.16
47706;BME280;33471;52.104;1.318;2022-07-29T05:49:21;101501.15;;;18.88;46.22
47706;BME280;33471;52.104;1.318;2022-07-29T05:51:48;101498.72;;;18.92;45.89
47706;BME280;33471;52.104;1.318;2022-07-29T05:54:16;101502.21;;;18.14;47.45
47706;BME280;33471;52.104;1.318;2022-07-29T05:56:44;101500.79;;;18.95;46.26
47706;BME280;33471;52.104;1.318;2022-07-29T05:59:11;101505.30;;;18.59;46.96
47706;BME280;33471;52.104;1.318;2022-07-29T06:01:38;101509.44;;;17.95;47.80
47706;BME280;33471;52.104;1.318;2022-07-29T06:04:06;101510.42;;;18.10;48.08
47706;BME280;33471;52.104;1.318;2022-07-29T06:06:33;101511.24;;;17.96;48.29
47706;BME280;33471;52.104;1.318;2022-07-29T06:09:02;101510.30;;;18.58;47.58
47706;BME280;33471;52.104;1.318;2022-07-29T06:11:29;101520.94;;;18.03;49.06
47706;BME280;33471;52.104;1.318;2022-07-29T06:13:57;101517.54;;;18.25;48.49
47706;BME280;33471;52.104;1.318;2022-07-29T06:16:24;101515.05;;;18.74;47.77
47706;BME280;33471;52.104;1.318;2022-07-29T06:18:51;101518.34;;;18.37;48.84
47706;BME280;33471;52.104;1.318;2022-07-29T06:21:18;101522.91;;;17.91;50.51
47706;BME280;33471;52.104;1.318;2022-07-29T06:23:46;101523.39;;;18.27;49.95
47706;BME280;33471;52.104;1.318;2022-07-29T06:26:14;101518.27;;;18.78;49.32
47706;BME280;33471;52.104;1.318;2022-07-29T06:28:42;101526.51;;;17.67;51.01
47706;BME280;33471;52.104;1.318;2022-07-29T06:31:09;101525.91;;;18.67;49.90
47706;BME280;33471;52.104;1.318;2022-07-29T06:33:37;101531.05;;;18.00;50.73
47706;BME280;33471;52.104;1.318;2022-07-29T06:36:05;101530.02;;;18.09;50.92
47706;BME280;33471;52.104;1.318;2022-07-29T06:38:33;101531.61;;;18.13;50.61
47706;BME280;33471;52.104;1.318;2022-07-29T06:41:01;101530.18;;;18.59;49.46
47706;BME280;33471;52.104;1.318;2022-07-29T06:43:30;101530.70;;;18.34;50.31
47706;BME280;33471;52.104;1.318;2022-07-29T06:45:59;101524.73;;;18.45;49.41
47706;BME280;33471;52.104;1.318;2022-07-29T06:48:27;101524.45;;;18.50;48.88
47706;BME280;33471;52.104;1.318;2022-07-29T06:50:54;101532.16;;;17.79;50.99
47706;BME280;33471;52.104;1.318;2022-07-29T06:53:23;101527.64;;;18.04;49.62
47706;BME280;33471;52.104;1.318;2022-07-29T06:55:50;101530.14;;;19.57;47.93
47706;BME280;33471;52.104;1.318;2022-07-29T06:58:18;101532.01;;;18.99;47.53
47706;BME280;33471;52.104;1.318;2022-07-29T07:00:46;101534.62;;;18.80;48.41
47706;BME280;33471;52.104;1.318;2022-07-29T07:03:14;101532.36;;;19.15;48.42
47706;BME280;33471;52.104;1.318;2022-07-29T07:05:41;101530.52;;;18.82;48.48
47706;BME280;33471;52.104;1.318;2022-07-29T07:08:08;101533.74;;;19.72;47.39
47706;BME280;33471;52.104;1.318;2022-07-29T07:10:36;101538.21;;;19.56;46.70
47706;BME280;33471;52.104;1.318;2022-07-29T07:13:04;101541.00;;;18.80;48.70
47706;BME280;33471;52.104;1.318;2022-07-29T07:15:32;101543.94;;;19.09;48.45
47706;BME280;33471;52.104;1.318;2022-07-29T07:18:00;101548.34;;;19.29;47.66
47706;BME280;33471;52.104;1.318;2022-07-29T07:20:27;101547.58;;;18.52;48.45
47706;BME280;33471;52.104;1.318;2022-07-29T07:22:59;101553.14;;;18.96;49.17
47706;BME280;33471;52.104;1.318;2022-07-29T07:25:26;101555.10;;;19.62;47.48
47706;BME280;33471;52.104;1.318;2022-07-29T07:27:54;101549.68;;;19.19;48.20
47706;BME280;33471;52.104;1.318;2022-07-29T07:30:22;101557.94;;;19.28;47.15
47706;BME280;33471;52.104;1.318;2022-07-29T07:32:50;101562.05;;;20.00;45.74
47706;BME280;33471;52.104;1.318;2022-07-29T07:35:18;101559.46;;;18.88;46.39
47706;BME280;33471;52.104;1.318;2022-07-29T07:37:45;101560.29;;;19.50;45.74
47706;BME280;33471;52.104;1.318;2022-07-29T07:40:13;101560.26;;;20.03;44.67
47706;BME280;33471;52.104;1.318;2022-07-29T07:42:41;101562.89;;;20.50;43.83
47706;BME280;33471;52.104;1.318;2022-07-29T07:45:09;101558.40;;;19.95;44.17
47706;BME280;33471;52.104;1.318;2022-07-29T07:47:38;101558.22;;;20.16;43.09
47706;BME280;33471;52.104;1.318;2022-07-29T07:50:08;101553.98;;;20.99;42.34
47706;BME280;33471;52.104;1.318;2022-07-29T07:52:46;101552.87;;;21.04;41.30
47706;BME280;33471;52.104;1.318;2022-07-29T07:55:14;101547.70;;;21.66;39.82
47706;BME280;33471;52.104;1.318;2022-07-29T07:57:41;101550.09;;;20.96;40.38
47706;BME280;33471;52.104;1.318;2022-07-29T08:00:09;101547.30;;;21.18;39.70
47706;BME280;33471;52.104;1.318;2022-07-29T08:02:37;101549.30;;;21.12;39.77
47706;BME280;33471;52.104;1.318;2022-07-29T08:05:05;101547.51;;;21.87;38.51
47706;BME280;33471;52.104;1.318;2022-07-29T08:07:33;101543.60;;;21.29;39.22
47706;BME280;33471;52.104;1.318;2022-07-29T08:10:01;101542.95;;;21.19;39.35
47706;BME280;33471;52.104;1.318;2022-07-29T08:12:29;101545.03;;;21.52;39.47
47706;BME280;33471;52.104;1.318;2022-07-29T08:14:56;101541.57;;;21.38;40.21
47706;BME280;33471;52.104;1.318;2022-07-29T08:17:23;101541.45;;;21.45;39.78
47706;BME280;33471;52.104;1.318;2022-07-29T08:19:50;101545.07;;;21.27;38.60
47706;BME280;33471;52.104;1.318;2022-07-29T08:22:17;101542.57;;;20.51;38.94
47706;BME280;33471;52.104;1.318;2022-07-29T08:24:45;101534.21;;;21.67;37.77
47706;BME280;33471;52.104;1.318;2022-07-29T08:27:13;101534.90;;;22.31;37.85
47706;BME280;33471;52.104;1.318;2022-07-29T08:29:41;101536.16;;;22.43;36.52
47706;BME280;33471;52.104;1.318;2022-07-29T08:32:08;101537.37;;;22.73;35.78
47706;BME280;33471;52.104;1.318;2022-07-29T08:34:36;101535.29;;;22.46;36.00
47706;BME280;33471;52.104;1.318;2022-07-29T08:37:03;101532.51;;;22.75;35.66
47706;BME280;33471;52.104;1.318;2022-07-29T08:39:30;101536.46;;;22.34;35.78
47706;BME280;33471;52.104;1.318;2022-07-29T08:41:57;101532.36;;;22.70;35.54
47706;BME280;33471;52.104;1.318;2022-07-29T08:44:24;101527.43;;;23.03;33.55
47706;BME280;33471;52.104;1.318;2022-07-29T08:46:52;101529.46;;;23.27;32.97
47706;BME280;33471;52.104;1.318;2022-07-29T08:49:19;101533.61;;;22.11;33.89
47706;BME280;33471;52.104;1.318;2022-07-29T08:51:46;101533.19;;;22.62;33.96
47706;BME280;33471;52.104;1.318;2022-07-29T08:54:17;101534.78;;;22.90;33.83
47706;BME280;33471;52.104;1.318;2022-07-29T08:56:48;101539.06;;;22.97;34.29
47706;BME280;33471;52.104;1.318;2022-07-29T08:59:19;101538.74;;;22.21;35.36
47706;BME280;33471;52.104;1.318;2022-07-29T09:01:47;101534.87;;;22.42;36.37
47706;BME280;33471;52.104;1.318;2022-07-29T09:04:16;101535.86;;;22.38;34.93
47706;BME280;33471;52.104;1.318;2022-07-29T09:06:47;101536.40;;;22.87;33.91
47706;BME280;33471;52.104;1.318;2022-07-29T09:09:17;101534.41;;;21.04;35.28
47706;BME280;33471;52.104;1.318;2022-07-29T09:11:44;101536.54;;;22.31;32.93
47706;BME280;33471;52.104;1.318;2022-07-29T09:14:12;101534.71;;;22.54;32.57
47706;BME280;33471;52.104;1.318;2022-07-29T09:16:45;101538.04;;;23.90;33.41
47706;BME280;33471;52.104;1.318;2022-07-29T09:19:21;101536.52;;;23.78;32.52
47706;BME280;33471;52.104;1.318;2022-07-29T09:21:48;101534.22;;;23.46;33.14
47706;BME280;33471;52.104;1.318;2022-07-29T09:24:15;101536.19;;;23.97;32.37
47706;BME280;33471;52.104;1.318;2022-07-29T09:26:44;101538.28;;;24.39;31.95
47706;BME280;33471;52.104;1.318;2022-07-29T09:29:14;101540.37;;;23.97;31.97
47706;BME280;33471;52.104;1.318;2022-07-29T09:31:43;101541.22;;;23.62;33.00
47706;BME280;33471;52.104;1.318;2022-07-29T09:34:12;101541.87;;;23.82;32.52
47706;BME280;33471;52.104;1.318;2022-07-29T09:36:42;101540.80;;;23.58;33.60
47706;BME280;33471;52.104;1.318;2022-07-29T09:39:10;101548.54;;;23.92;32.22
47706;BME280;33471;52.104;1.318;2022-07-29T09:41:47;101550.32;;;23.98;31.97
47706;BME280;33471;52.104;1.318;2022-07-29T09:44:15;101549.05;;;23.76;32.00
47706;BME280;33471;52.104;1.318;2022-07-29T09:47:00;101542.52;;;23.92;32.06
47706;BME280;33471;52.104;1.318;2022-07-29T09:49:28;101544.56;;;24.99;31.74
47706;BME280;33471;52.104;1.318;2022-07-29T09:52:11;101545.54;;;24.51;32.02
47706;BME280;33471;52.104;1.318;2022-07-29T09:54:38;101547.35;;;24.26;33.82
47706;BME280;33471;52.104;1.318;2022-07-29T09:57:07;101542.89;;;23.56;34.56
47706;BME280;33471;52.104;1.318;2022-07-29T09:59:34;101555.27;;;22.19;36.80
47706;BME280;33471;52.104;1.318;2022-07-29T10:02:01;101552.56;;;22.43;37.30
47706;BME280;33471;52.104;1.318;2022-07-29T10:04:44;101547.16;;;22.83;36.75
47706;BME280;33471;52.104;1.318;2022-07-29T10:07:11;101552.48;;;22.44;36.77
47706;BME280;33471;52.104;1.318;2022-07-29T10:09:39;101550.08;;;22.53;36.91
47706;BME280;33471;52.104;1.318;2022-07-29T10:12:17;101546.65;;;22.62;36.06
47706;BME280;33471;52.104;1.318;2022-07-29T10:14:44;101544.14;;;23.32;35.61
47706;BME280;33471;52.104;1.318;2022-07-29T10:17:12;101549.87;;;23.14;35.73
47706;BME280;33471;52.104;1.318;2022-07-29T10:19:39;101548.22;;;22.53;36.93
47706;BME280;33471;52.104;1.318;2022-07-29T10:22:09;101544.13;;;23.51;36.06
47706;BME280;33471;52.104;1.318;2022-07-29T10:24:38;101543.31;;;24.33;34.88
47706;BME280;33471;52.104;1.318;2022-07-29T10:27:07;101547.37;;;24.45;34.64
47706;BME280;33471;52.104;1.318;2022-07-29T10:29:34;101553.07;;;24.81;33.89
47706;BME280;33471;52.104;1.318;2022-07-29T10:32:21;101551.33;;;24.70;33.91
47706;BME280;33471;52.104;1.318;2022-07-29T10:35:08;101556.49;;;24.36;34.29
47706;BME280;33471;52.104;1.318;2022-07-29T10:37:52;101562.03;;;23.85;34.20
47706;BME280;33471;52.104;1.318;2022-07-29T10:40:30;101557.72;;;24.61;34.29
47706;BME280;33471;52.104;1.318;2022-07-29T10:43:06;101558.36;;;25.01;33.48
47706;BME280;33471;52.104;1.318;2022-07-29T10:45:37;101550.86;;;25.75;31.57
47706;BME280;33471;52.104;1.318;2022-07-29T10:48:05;101543.30;;;25.90;31.21
47706;BME280;33471;52.104;1.318;2022-07-29T10:50:52;101549.81;;;25.49;31.67
47706;BME280;33471;52.104;1.318;2022-07-29T10:53:20;101550.66;;;25.51;30.89
47706;BME280;33471;52.104;1.318;2022-07-29T10:55:48;101553.05;;;25.37;32.23
47706;BME280;33471;52.104;1.318;2022-07-29T10:58:17;101551.49;;;24.52;33.80
47706;BME280;33471;52.104;1.318;2022-07-29T11:00:47;101556.72;;;23.85;34.59
47706;BME280;33471;52.104;1.318;2022-07-29T11:03:51;101557.72;;;24.52;33.99
47706;BME280;33471;52.104;1.318;2022-07-29T11:06:18;101563.27;;;24.33;33.05
47706;BME280;33471;52.104;1.318;2022-07-29T11:08:46;101553.58;;;25.36;31.96
47706;BME280;33471;52.104;1.318;2022-07-29T11:11:42;101560.57;;;25.17;32.81
47706;BME280;33471;52.104;1.318;2022-07-29T11:14:09;101561.32;;;25.11;32.77
47706;BME280;33471;52.104;1.318;2022-07-29T11:17:09;101559.20;;;26.44;31.30
47706;BME280;33471;52.104;1.318;2022-07-29T11:19:36;101553.39;;;24.60;31.90
47706;BME280;33471;52.104;1.318;2022-07-29T11:22:08;101545.27;;;26.10;30.32
47706;BME280;33471;52.104;1.318;2022-07-29T11:24:35;101543.39;;;27.00;28.58
47706;BME280;33471;52.104;1.318;2022-07-29T11:27:08;101542.72;;;26.58;29.66
47706;BME280;33471;52.104;1.318;2022-07-29T11:29:39;101541.69;;;26.31;30.72
47706;BME280;33471;52.104;1.318;2022-07-29T11:32:10;101539.52;;;26.04;30.53
47706;BME280;33471;52.104;1.318;2022-07-29T11:34:37;101544.50;;;25.67;31.31
47706;BME280;33471;52.104;1.318;2022-07-29T11:37:22;101543.38;;;26.05;31.20
47706;BME280;33471;52.104;1.318;2022-07-29T11:40:21;101546.68;;;25.95;32.16
47706;BME280;33471;52.104;1.318;2022-07-29T11:42:49;101549.62;;;24.17;33.74
47706;BME280;33471;52.104;1.318;2022-07-29T11:45:25;101548.42;;;23.97;33.28
47706;BME280;33471;52.104;1.318;2022-07-29T11:47:55;101548.99;;;23.50;33.59
47706;BME280;33471;52.104;1.318;2022-07-29T11:50:33;101545.09;;;24.99;31.45
47706;BME280;33471;52.104;1.318;2022-07-29T11:53:03;101549.42;;;25.27;30.70
47706;BME280;33471;52.104;1.318;2022-07-29T11:55:38;101544.95;;;25.73;29.99
47706;BME280;33471;52.104;1.318;2022-07-29T11:58:05;101553.25;;;25.37;30.70
47706;BME280;33471;52.104;1.318;2022-07-29T12:00:35;101543.24;;;26.03;29.86
47706;BME280;33471;52.104;1.318;2022-07-29T12:03:04;101542.08;;;25.85;29.95
47706;BME280;33471;52.104;1.318;2022-07-29T12:05:34;101542.31;;;26.44;29.81
47706;BME280;33471;52.104;1.318;2022-07-29T12:08:08;101543.85;;;25.94;30.09
47706;BME280;33471;52.104;1.318;2022-07-29T12:10:36;101537.89;;;25.80;29.97
47706;BME280;33471;52.104;1.318;2022-07-29T12:13:04;101536.98;;;26.73;28.65
47706;BME280;33471;52.104;1.318;2022-07-29T12:15:32;101534.35;;;26.37;29.31
47706;BME280;33471;52.104;1.318;2022-07-29T12:18:10;101542.00;;;27.76;28.16
47706;BME280;33471;52.104;1.318;2022-07-29T12:20:37;101542.59;;;27.80;27.35
47706;BME280;33471;52.104;1.318;2022-07-29T12:23:06;101543.95;;;28.18;27.31
47706;BME280;33471;52.104;1.318;2022-07-29T12:25:34;101551.66;;;26.38;28.68
47706;BME280;33471;52.104;1.318;2022-07-29T12:28:03;101555.93;;;25.77;28.87
47706;BME280;33471;52.104;1.318;2022-07-29T12:30:40;101555.56;;;26.27;29.23
47706;BME280;33471;52.104;1.318;2022-07-29T12:33:13;101556.19;;;26.06;29.16
47706;BME280;33471;52.104;1.318;2022-07-29T12:35:44;101556.91;;;26.42;29.94
47706;BME280;33471;52.104;1.318;2022-07-29T12:38:12;101570.26;;;24.34;32.89
47706;BME280;33471;52.104;1.318;2022-07-29T12:40:40;101569.58;;;24.54;32.69
47706;BME280;33471;52.104;1.318;2022-07-29T12:43:10;101566.09;;;24.77;32.79
47706;BME280;33471;52.104;1.318;2022-07-29T12:45:38;101565.69;;;24.32;32.88
47706;BME280;33471;52.104;1.318;2022-07-29T12:48:07;101561.02;;;24.35;33.28
47706;BME280;33471;52.104;1.318;2022-07-29T12:50:36;101559.11;;;23.95;33.45
47706;BME280;33471;52.104;1.318;2022-07-29T12:53:12;101554.91;;;23.82;34.48
47706;BME280;33471;52.104;1.318;2022-07-29T12:55:41;101550.93;;;24.65;33.49
47706;BME280;33471;52.104;1.318;2022-07-29T12:58:09;101550.12;;;24.37;33.58
47706;BME280;33471;52.104;1.318;2022-07-29T13:00:37;101553.18;;;24.60;33.14
47706;BME280;33471;52.104;1.318;2022-07-29T13:03:04;101558.38;;;22.75;34.75